Time;durP1;ratioP1;P1;durP2;ratioP2;P2;SDS_P1;SDS_P2;PMS_P1;PMS_P2;Temp;Humidity;BMP_temperature;BMP_pressure;BME280_temperature;BME280_humidity;BME280_pressure;Samples;Min_cycle;Max_cycle;Signal;HPM_P1;HPM_P2
2024/01/18 00:02:16;;;;;;;9.88;5.05;;;;;;;;;;5019914;28;20030;-62
2024/01/18 00:04:43;;;;;;;5.88;4.80;;;;;;;;;;5009437;28;20543;-62
2024/01/18 00:07:12;;;;;;;6.30;4.80;;;;;;;;;;5017580;28;20394;-62
2024/01/18 00:09:38;;;;;;;7.07;5.18;;;;;;;;;;5023962;28;20032;-62
2024/01/18 00:12:04;;;;;;;6.50;4.40;;;;;;;;;;5012987;28;20034;-62
2024/01/18 00:14:30;;;;;;;4.30;3.88;;;;;;;;;;5013795;28;20053;-62
2024/01/18 00:16:56;;;;;;;5.18;4.78;;;;;;;;;;5016906;28;20037;-62
2024/01/18 00:19:23;;;;;;;7.05;5.40;;;;;;;;;;5010696;28;20049;-62
2024/01/18 00:21:49;;;;;;;4.03;3.55;;;;;;;;;;5018126;28;20048;-62
2024/01/18 00:24:15;;;;;;;6.45;4.28;;;;;;;;;;5015904;28;20757;-62
2024/01/18 00:26:41;;;;;;;13.82;3.80;;;;;;;;;;5015518;28;20032;-62
2024/01/18 00:29:07;;;;;;;5.30;4.20;;;;;;;;;;5023220;28;20028;-63
2024/01/18 00:31:33;;;;;;;6.63;4.25;;;;;;;;;;5017042;28;20026;-62
2024/01/18 00:33:59;;;;;;;4.53;3.35;;;;;;;;;;5015757;28;20606;-61
2024/01/18 00:36:26;;;;;;;4.22;2.92;;;;;;;;;;5012839;28;20210;-62
2024/01/18 00:38:52;;;;;;;9.70;3.75;;;;;;;;;;5012345;28;20441;-61
2024/01/18 00:41:18;;;;;;;7.90;4.65;;;;;;;;;;5035099;28;20034;-62
2024/01/18 00:43:44;;;;;;;17.52;7.53;;;;;;;;;;5018022;28;20021;-61
2024/01/18 00:46:10;;;;;;;7.90;6.28;;;;;;;;;;5010673;28;20428;-62
2024/01/18 00:48:36;;;;;;;9.80;7.07;;;;;;;;;;5012834;28;20493;-62
2024/01/18 00:51:02;;;;;;;10.13;4.43;;;;;;;;;;5007169;28;20056;-62
2024/01/18 00:53:29;;;;;;;8.55;3.97;;;;;;;;;;5011277;28;20033;-62
2024/01/18 00:55:55;;;;;;;7.18;4.20;;;;;;;;;;5032486;28;20122;-62
2024/01/18 00:58:22;;;;;;;7.68;4.97;;;;;;;;;;5007012;28;20052;-62
2024/01/18 01:00:48;;;;;;;5.07;3.63;;;;;;;;;;5011993;28;20033;-61
2024/01/18 01:03:14;;;;;;;7.57;5.22;;;;;;;;;;5029437;28;20034;-62
2024/01/18 01:05:40;;;;;;;5.00;4.38;;;;;;;;;;5012972;28;20022;-63
2024/01/18 01:08:06;;;;;;;11.05;3.20;;;;;;;;;;5006700;28;20025;-62
2024/01/18 01:10:32;;;;;;;6.53;4.40;;;;;;;;;;5011712;28;20026;-62
2024/01/18 01:12:58;;;;;;;7.38;4.63;;;;;;;;;;5016559;28;20061;-61
2024/01/18 01:15:24;;;;;;;4.30;4.00;;;;;;;;;;5011040;28;20120;-62
2024/01/18 01:17:51;;;;;;;6.18;5.50;;;;;;;;;;5032072;28;20034;-62
2024/01/18 01:20:17;;;;;;;4.35;3.53;;;;;;;;;;5013967;28;20489;-63
2024/01/18 01:22:43;;;;;;;3.10;2.90;;;;;;;;;;5018824;28;20233;-63
2024/01/18 01:25:09;;;;;;;4.22;3.83;;;;;;;;;;5009359;28;20121;-62
2024/01/18 01:27:35;;;;;;;12.02;5.30;;;;;;;;;;5013768;28;20406;-62
2024/01/18 01:30:01;;;;;;;8.52;3.72;;;;;;;;;;5010089;28;20026;-61
2024/01/18 01:32:27;;;;;;;7.38;4.50;;;;;;;;;;5010602;28;20513;-62
2024/01/18 01:34:53;;;;;;;6.63;3.63;;;;;;;;;;5010198;28;20036;-63
2024/01/18 01:37:30;;;;;;;6.43;4.47;;;;;;;;;;5033046;28;20025;-62
2024/01/18 01:39:56;;;;;;;5.85;4.13;;;;;;;;;;5019910;28;20033;-62
2024/01/18 01:42:22;;;;;;;4.00;3.63;;;;;;;;;;5013989;28;20038;-61
2024/01/18 01:44:50;;;;;;;7.22;4.43;;;;;;;;;;5016224;28;20025;-61
2024/01/18 01:47:16;;;;;;;6.82;3.65;;;;;;;;;;5019594;28;20064;-62
2024/01/18 01:49:42;;;;;;;4.78;3.53;;;;;;;;;;5011372;28;20101;-61
2024/01/18 01:52:08;;;;;;;7.88;4.80;;;;;;;;;;5007780;28;20697;-62
2024/01/18 01:54:35;;;;;;;3.80;3.15;;;;;;;;;;5015966;28;20044;-63
2024/01/18 01:57:03;;;;;;;6.38;4.43;;;;;;;;;;5017147;28;20314;-61
2024/01/18 01:59:30;;;;;;;4.90;3.35;;;;;;;;;;5007480;28;20449;-62
2024/01/18 02:01:56;;;;;;;5.28;4.18;;;;;;;;;;5009673;28;20049;-62
2024/01/18 02:04:23;;;;;;;6.85;3.80;;;;;;;;;;5012992;28;20025;-62
2024/01/18 02:06:52;;;;;;;6.88;3.92;;;;;;;;;;5017598;28;20018;-62
2024/01/18 02:09:19;;;;;;;8.57;3.70;;;;;;;;;;5029916;28;20036;-62
2024/01/18 02:11:45;;;;;;;7.57;3.53;;;;;;;;;;5014764;28;20053;-62
2024/01/18 02:14:11;;;;;;;6.53;3.67;;;;;;;;;;5009536;28;20062;-62
2024/01/18 02:16:37;;;;;;;5.47;3.70;;;;;;;;;;5009937;28;20134;-62
2024/01/18 02:19:04;;;;;;;5.85;4.45;;;;;;;;;;5015741;28;20044;-62
2024/01/18 02:21:30;;;;;;;5.60;3.75;;;;;;;;;;5003296;28;20430;-62
2024/01/18 02:24:14;;;;;;;5.13;4.00;;;;;;;;;;5003577;28;20113;-61
2024/01/18 02:26:40;;;;;;;4.75;4.35;;;;;;;;;;5010651;28;20096;-62
2024/01/18 02:29:07;;;;;;;4.38;3.65;;;;;;;;;;5017950;28;20033;-62
2024/01/18 02:31:33;;;;;;;3.42;3.08;;;;;;;;;;5016150;28;20977;-62
2024/01/18 02:33:59;;;;;;;6.85;3.45;;;;;;;;;;5020651;28;20149;-61
2024/01/18 02:36:25;;;;;;;5.00;3.55;;;;;;;;;;5018936;28;20029;-62
2024/01/18 02:38:52;;;;;;;4.47;4.05;;;;;;;;;;5019594;28;20033;-62
2024/01/18 02:41:19;;;;;;;4.47;3.53;;;;;;;;;;5039652;28;20382;-62
2024/01/18 02:43:45;;;;;;;4.60;3.88;;;;;;;;;;5025092;28;20029;-62
2024/01/18 02:46:16;;;;;;;4.15;3.72;;;;;;;;;;5041616;28;20396;-64
2024/01/18 02:48:42;;;;;;;4.57;4.18;;;;;;;;;;5018270;28;20258;-63
2024/01/18 02:51:08;;;;;;;5.65;3.90;;;;;;;;;;5024056;28;21403;-62
2024/01/18 02:53:34;;;;;;;3.67;3.20;;;;;;;;;;5020250;28;20037;-61
2024/01/18 02:56:00;;;;;;;5.90;4.35;;;;;;;;;;5021551;28;20438;-62
2024/01/18 02:58:26;;;;;;;6.20;4.63;;;;;;;;;;5016655;28;20029;-62
2024/01/18 03:00:53;;;;;;;6.88;3.53;;;;;;;;;;5024258;28;20415;-62
2024/01/18 03:03:20;;;;;;;3.92;3.45;;;;;;;;;;5016705;28;20034;-62
2024/01/18 03:05:46;;;;;;;7.55;3.15;;;;;;;;;;5018004;28;20116;-62
2024/01/18 03:08:12;;;;;;;3.35;3.05;;;;;;;;;;5025282;28;20049;-62
2024/01/18 03:10:38;;;;;;;4.88;4.40;;;;;;;;;;5024135;28;20033;-62
2024/01/18 03:13:04;;;;;;;6.07;3.65;;;;;;;;;;5024707;28;20026;-62
2024/01/18 03:15:31;;;;;;;4.88;3.58;;;;;;;;;;5042036;28;20532;-63
2024/01/18 03:17:57;;;;;;;5.38;3.72;;;;;;;;;;5018510;28;20033;-62
2024/01/18 03:20:23;;;;;;;4.05;3.75;;;;;;;;;;5010749;28;20042;-63
2024/01/18 03:22:49;;;;;;;5.70;5.00;;;;;;;;;;5018202;28;20087;-62
2024/01/18 03:25:15;;;;;;;6.55;4.40;;;;;;;;;;5035433;28;20029;-62
2024/01/18 03:27:42;;;;;;;8.60;5.43;;;;;;;;;;5016145;28;20583;-62
2024/01/18 03:30:08;;;;;;;6.65;6.00;;;;;;;;;;5017015;28;20028;-62
2024/01/18 03:32:34;;;;;;;6.32;4.75;;;;;;;;;;5021183;28;20311;-62
2024/01/18 03:35:11;;;;;;;5.28;4.78;;;;;;;;;;5032305;28;20130;-63
2024/01/18 03:37:37;;;;;;;6.07;4.65;;;;;;;;;;5037808;28;20121;-62
2024/01/18 03:40:04;;;;;;;7.15;5.35;;;;;;;;;;5035325;28;20421;-62
2024/01/18 03:42:30;;;;;;;7.45;4.65;;;;;;;;;;5018493;28;20525;-62
2024/01/18 03:44:56;;;;;;;6.95;6.40;;;;;;;;;;5018183;28;20064;-63
2024/01/18 03:47:22;;;;;;;5.45;3.53;;;;;;;;;;5021003;28;20505;-63
2024/01/18 03:49:49;;;;;;;7.53;5.03;;;;;;;;;;5013269;28;20064;-62
2024/01/18 03:52:16;;;;;;;10.75;5.63;;;;;;;;;;5019648;28;20033;-63
2024/01/18 03:54:42;;;;;;;5.50;4.68;;;;;;;;;;5017326;28;20095;-62
2024/01/18 03:57:08;;;;;;;10.45;6.78;;;;;;;;;;5028703;28;20060;-62
2024/01/18 03:59:35;;;;;;;5.60;5.10;;;;;;;;;;5020298;28;20295;-62
2024/01/18 04:02:01;;;;;;;5.57;4.78;;;;;;;;;;5021915;28;20119;-62
2024/01/18 04:04:27;;;;;;;10.75;5.10;;;;;;;;;;5029333;28;20033;-62
2024/01/18 04:06:53;;;;;;;4.03;3.58;;;;;;;;;;5015450;28;20165;-62
2024/01/18 04:09:19;;;;;;;10.50;6.70;;;;;;;;;;5033687;28;20417;-66
2024/01/18 04:11:45;;;;;;;9.13;5.95;;;;;;;;;;5028386;28;20030;-62
2024/01/18 04:14:11;;;;;;;8.48;5.22;;;;;;;;;;5015214;28;20073;-62
2024/01/18 04:16:38;;;;;;;4.90;4.07;;;;;;;;;;5014351;28;20196;-62
2024/01/18 04:19:04;;;;;;;6.53;3.33;;;;;;;;;;5031014;28;20038;-62
2024/01/18 04:21:31;;;;;;;8.77;5.68;;;;;;;;;;5017467;28;20497;-63
2024/01/18 04:23:57;;;;;;;14.18;4.55;;;;;;;;;;5015819;28;20030;-62
2024/01/18 04:26:24;;;;;;;6.88;4.43;;;;;;;;;;5032322;28;20034;-62
2024/01/18 04:28:50;;;;;;;4.35;3.83;;;;;;;;;;5014188;28;20084;-62
2024/01/18 04:31:16;;;;;;;6.50;5.72;;;;;;;;;;5010429;28;20819;-63
2024/01/18 04:33:43;;;;;;;7.43;4.70;;;;;;;;;;5013594;28;20037;-62
2024/01/18 04:36:09;;;;;;;9.98;6.53;;;;;;;;;;5016305;28;20041;-62
2024/01/18 04:38:35;;;;;;;7.72;6.25;;;;;;;;;;5035473;28;20403;-64
2024/01/18 04:41:01;;;;;;;5.60;4.45;;;;;;;;;;5016305;28;20428;-62
2024/01/18 04:43:27;;;;;;;7.32;4.38;;;;;;;;;;5033615;28;20033;-62
2024/01/18 04:45:53;;;;;;;4.93;3.65;;;;;;;;;;5018843;28;20037;-63
2024/01/18 04:48:19;;;;;;;6.97;4.07;;;;;;;;;;5023465;28;20037;-62
2024/01/18 04:50:45;;;;;;;4.05;3.72;;;;;;;;;;5025542;28;20041;-62
2024/01/18 04:53:12;;;;;;;9.43;3.88;;;;;;;;;;5020763;28;20064;-62
2024/01/18 04:55:38;;;;;;;5.30;4.03;;;;;;;;;;5015269;28;20036;-62
2024/01/18 04:58:04;;;;;;;4.68;4.15;;;;;;;;;;5015667;28;20456;-62
2024/01/18 05:00:30;;;;;;;3.38;3.05;;;;;;;;;;5014401;28;20528;-65
2024/01/18 05:02:56;;;;;;;8.30;5.22;;;;;;;;;;5030145;28;20071;-62
2024/01/18 05:05:22;;;;;;;7.10;3.25;;;;;;;;;;5010926;28;20981;-62
2024/01/18 05:07:49;;;;;;;4.80;3.83;;;;;;;;;;5013110;28;20285;-62
2024/01/18 05:10:15;;;;;;;5.45;3.83;;;;;;;;;;5016148;28;20036;-62
2024/01/18 05:12:44;;;;;;;5.43;3.85;;;;;;;;;;5012594;28;20025;-64
2024/01/18 05:15:11;;;;;;;3.40;2.53;;;;;;;;;;5009431;28;20493;-63
2024/01/18 05:17:40;;;;;;;5.80;3.97;;;;;;;;;;5017094;28;20033;-62
2024/01/18 05:20:06;;;;;;;4.00;3.70;;;;;;;;;;5011429;28;20060;-62
2024/01/18 05:22:33;;;;;;;7.55;5.20;;;;;;;;;;5014295;28;20017;-62
2024/01/18 05:25:00;;;;;;;4.95;4.38;;;;;;;;;;5013884;28;20091;-62
2024/01/18 05:27:36;;;;;;;5.50;5.00;;;;;;;;;;5009320;28;20112;-62
2024/01/18 05:30:07;;;;;;;4.75;4.05;;;;;;;;;;5015161;28;20026;-63
2024/01/18 05:32:33;;;;;;;9.57;4.55;;;;;;;;;;5010642;28;20113;-62
2024/01/18 05:35:01;;;;;;;6.03;4.15;;;;;;;;;;5027888;28;20033;-62
2024/01/18 05:37:27;;;;;;;5.40;3.42;;;;;;;;;;5019872;28;20030;-62
2024/01/18 05:39:53;;;;;;;5.97;3.65;;;;;;;;;;5015568;28;20112;-62
2024/01/18 05:42:20;;;;;;;5.93;4.68;;;;;;;;;;5011606;28;20044;-62
2024/01/18 05:44:46;;;;;;;17.55;3.78;;;;;;;;;;5015024;28;20032;-63
2024/01/18 05:47:13;;;;;;;4.55;3.83;;;;;;;;;;5013954;28;20031;-63
2024/01/18 05:49:39;;;;;;;6.32;4.28;;;;;;;;;;5014333;28;20682;-62
2024/01/18 05:52:06;;;;;;;7.20;4.63;;;;;;;;;;5014113;28;20038;-62
2024/01/18 05:54:35;;;;;;;6.28;3.15;;;;;;;;;;5034373;28;20041;-61
2024/01/18 05:57:04;;;;;;;4.45;4.05;;;;;;;;;;5027989;28;20748;-62
2024/01/18 05:59:30;;;;;;;5.40;4.35;;;;;;;;;;5025225;28;20376;-62
2024/01/18 06:01:57;;;;;;;5.47;4.20;;;;;;;;;;5016630;28;20095;-62
2024/01/18 06:04:24;;;;;;;3.88;3.28;;;;;;;;;;5000277;28;20052;-63
2024/01/18 06:06:50;;;;;;;4.13;3.45;;;;;;;;;;5019823;28;20029;-62
2024/01/18 06:09:17;;;;;;;4.00;3.70;;;;;;;;;;5017401;28;20049;-62
2024/01/18 06:11:46;;;;;;;8.27;4.43;;;;;;;;;;5012910;28;20040;-64
2024/01/18 06:14:13;;;;;;;6.78;3.97;;;;;;;;;;5030458;28;20044;-64
2024/01/18 06:16:39;;;;;;;3.13;2.83;;;;;;;;;;5012104;28;20056;-62
2024/01/18 06:19:05;;;;;;;4.75;4.28;;;;;;;;;;5015912;28;20021;-63
2024/01/18 06:21:32;;;;;;;3.65;3.30;;;;;;;;;;5014288;28;20071;-64
2024/01/18 06:23:58;;;;;;;5.53;4.25;;;;;;;;;;5015272;28;20157;-62
2024/01/18 06:26:24;;;;;;;5.40;4.22;;;;;;;;;;5016505;28;20971;-62
2024/01/18 06:28:50;;;;;;;5.28;3.33;;;;;;;;;;5017193;28;20371;-62
2024/01/18 06:31:19;;;;;;;4.10;3.72;;;;;;;;;;5013183;28;20053;-63
2024/01/18 06:33:45;;;;;;;7.90;4.53;;;;;;;;;;5029754;28;20025;-62
2024/01/18 06:36:12;;;;;;;3.95;3.65;;;;;;;;;;5016259;28;20396;-63
2024/01/18 06:38:38;;;;;;;3.85;3.25;;;;;;;;;;5015995;28;20036;-63
2024/01/18 06:41:04;;;;;;;16.63;4.10;;;;;;;;;;5017238;28;20029;-62
2024/01/18 06:43:30;;;;;;;9.10;3.08;;;;;;;;;;5011849;28;20091;-64
2024/01/18 06:45:57;;;;;;;5.70;2.92;;;;;;;;;;5017358;28;20034;-62
2024/01/18 06:48:23;;;;;;;3.78;3.33;;;;;;;;;;5005809;28;20025;-63
2024/01/18 06:50:49;;;;;;;3.20;2.95;;;;;;;;;;5029599;28;20139;-63
2024/01/18 06:53:15;;;;;;;5.40;3.50;;;;;;;;;;5027478;28;21521;-66
2024/01/18 06:55:42;;;;;;;3.28;2.95;;;;;;;;;;5012382;28;20124;-62
2024/01/18 06:58:08;;;;;;;2.60;2.40;;;;;;;;;;5025346;28;20384;-62
2024/01/18 07:00:34;;;;;;;2.90;2.70;;;;;;;;;;5014544;28;20032;-63
2024/01/18 07:03:00;;;;;;;4.10;3.63;;;;;;;;;;5018474;28;20042;-62
2024/01/18 07:05:27;;;;;;;3.35;2.90;;;;;;;;;;5012300;28;20409;-65
2024/01/18 07:07:53;;;;;;;3.55;3.25;;;;;;;;;;5014921;28;20108;-63
2024/01/18 07:10:20;;;;;;;8.52;3.63;;;;;;;;;;5016990;28;20034;-62
2024/01/18 07:12:46;;;;;;;7.03;4.00;;;;;;;;;;5029692;28;20122;-63
2024/01/18 07:15:13;;;;;;;3.78;3.35;;;;;;;;;;5013653;28;20068;-62
2024/01/18 07:17:39;;;;;;;3.95;3.55;;;;;;;;;;5018509;28;20029;-62
2024/01/18 07:20:06;;;;;;;6.10;4.18;;;;;;;;;;5015745;28;20039;-62
2024/01/18 07:22:32;;;;;;;4.07;3.70;;;;;;;;;;5017870;28;20089;-62
2024/01/18 07:24:58;;;;;;;3.45;3.13;;;;;;;;;;5016955;28;20507;-63
2024/01/18 07:27:25;;;;;;;3.20;2.90;;;;;;;;;;5016288;28;20120;-63
2024/01/18 07:29:51;;;;;;;4.93;4.03;;;;;;;;;;5014913;28;20510;-62
2024/01/18 07:32:17;;;;;;;2.88;2.67;;;;;;;;;;5011467;28;20033;-62
2024/01/18 07:34:44;;;;;;;2.75;2.50;;;;;;;;;;5013995;28;20787;-62
2024/01/18 07:37:13;;;;;;;4.03;2.67;;;;;;;;;;5018998;28;20025;-62
2024/01/18 07:39:42;;;;;;;3.78;2.03;;;;;;;;;;5020418;28;20498;-63
2024/01/18 07:42:09;;;;;;;3.70;3.40;;;;;;;;;;5015015;28;20172;-62
2024/01/18 07:44:35;;;;;;;3.38;3.08;;;;;;;;;;5018532;28;20069;-62
2024/01/18 07:47:01;;;;;;;7.03;3.42;;;;;;;;;;5018135;28;20095;-63
2024/01/18 07:49:28;;;;;;;3.58;2.97;;;;;;;;;;5015837;28;20489;-62
2024/01/18 07:51:54;;;;;;;5.60;2.97;;;;;;;;;;5021971;28;20041;-62
2024/01/18 07:54:20;;;;;;;4.28;3.13;;;;;;;;;;5018665;28;20379;-61
2024/01/18 07:56:46;;;;;;;26.73;4.22;;;;;;;;;;5021117;28;20497;-62
2024/01/18 07:59:12;;;;;;;2.95;2.70;;;;;;;;;;5015988;28;20048;-61
2024/01/18 08:01:40;;;;;;;3.25;2.45;;;;;;;;;;5015938;28;20177;-61
2024/01/18 08:04:06;;;;;;;4.25;2.50;;;;;;;;;;5013940;28;20021;-62
2024/01/18 08:06:32;;;;;;;3.47;2.17;;;;;;;;;;5014670;28;20105;-62
2024/01/18 08:08:58;;;;;;;3.17;2.88;;;;;;;;;;5013121;28;20045;-62
2024/01/18 08:11:25;;;;;;;3.75;2.80;;;;;;;;;;5024056;28;20087;-62
2024/01/18 08:13:51;;;;;;;2.60;2.42;;;;;;;;;;5030473;28;20839;-62
2024/01/18 08:16:18;;;;;;;5.25;3.45;;;;;;;;;;5027830;28;20030;-61
2024/01/18 08:18:44;;;;;;;4.10;3.08;;;;;;;;;;5016152;28;20406;-61
2024/01/18 08:21:10;;;;;;;6.45;4.03;;;;;;;;;;5018051;28;20501;-61
2024/01/18 08:23:36;;;;;;;3.45;3.15;;;;;;;;;;5010596;28;20037;-61
2024/01/18 08:26:02;;;;;;;3.38;3.00;;;;;;;;;;5030400;28;20087;-61
2024/01/18 08:28:28;;;;;;;3.10;2.65;;;;;;;;;;5034701;28;20094;-61
2024/01/18 08:30:55;;;;;;;5.03;3.55;;;;;;;;;;5014316;28;20452;-61
2024/01/18 08:33:21;;;;;;;5.28;3.80;;;;;;;;;;5030001;28;20113;-62
2024/01/18 08:35:48;;;;;;;3.08;2.65;;;;;;;;;;5010625;28;20049;-63
2024/01/18 08:38:14;;;;;;;4.68;2.90;;;;;;;;;;5016679;28;20476;-62
2024/01/18 08:40:40;;;;;;;3.35;3.10;;;;;;;;;;5015349;28;20071;-62
2024/01/18 08:43:06;;;;;;;6.07;2.35;;;;;;;;;;5016971;28;20537;-62
2024/01/18 08:45:33;;;;;;;12.25;5.72;;;;;;;;;;5017828;28;20076;-62
2024/01/18 08:48:00;;;;;;;5.18;4.70;;;;;;;;;;5029399;28;20037;-66
2024/01/18 08:50:26;;;;;;;4.13;3.60;;;;;;;;;;5019745;28;20440;-65
2024/01/18 08:52:52;;;;;;;8.20;5.18;;;;;;;;;;5011050;28;20490;-62
2024/01/18 08:55:18;;;;;;;4.30;2.17;;;;;;;;;;5018257;28;20100;-62
2024/01/18 08:57:45;;;;;;;5.10;3.38;;;;;;;;;;5018703;28;20032;-61
2024/01/18 09:00:17;;;;;;;3.88;2.88;;;;;;;;;;5023583;28;20118;-62
2024/01/18 09:02:44;;;;;;;12.00;7.50;;;;;;;;;;5015501;28;20495;-62
2024/01/18 09:05:10;;;;;;;6.22;5.10;;;;;;;;;;5017996;28;20025;-62
2024/01/18 09:07:36;;;;;;;4.80;4.40;;;;;;;;;;5010898;28;20030;-62
2024/01/18 09:10:03;;;;;;;3.55;3.25;;;;;;;;;;5018069;28;20029;-62
2024/01/18 09:12:29;;;;;;;3.95;3.63;;;;;;;;;;5016218;28;20112;-62
2024/01/18 09:14:56;;;;;;;6.05;3.63;;;;;;;;;;5029068;28;20354;-62
2024/01/18 09:17:22;;;;;;;4.35;3.53;;;;;;;;;;5018588;28;20517;-62
2024/01/18 09:19:51;;;;;;;3.30;3.00;;;;;;;;;;5017494;28;20439;-62
2024/01/18 09:22:18;;;;;;;5.35;3.05;;;;;;;;;;5015573;28;20036;-61
2024/01/18 09:24:44;;;;;;;5.65;3.90;;;;;;;;;;5016035;28;20534;-61
2024/01/18 09:27:11;;;;;;;3.25;2.30;;;;;;;;;;5015666;28;20029;-62
2024/01/18 09:29:37;;;;;;;3.50;3.25;;;;;;;;;;5010355;28;20045;-62
2024/01/18 09:32:06;;;;;;;2.22;2.05;;;;;;;;;;5017497;28;20044;-62
2024/01/18 09:34:32;;;;;;;4.78;2.88;;;;;;;;;;5009761;28;20121;-61
2024/01/18 09:36:59;;;;;;;3.40;2.03;;;;;;;;;;5028999;28;20044;-62
2024/01/18 09:39:26;;;;;;;2.88;2.65;;;;;;;;;;5033143;28;20033;-62
2024/01/18 09:41:53;;;;;;;12.43;3.42;;;;;;;;;;5018653;28;20466;-62
2024/01/18 09:44:31;;;;;;;3.75;3.35;;;;;;;;;;5016140;28;20025;-62
2024/01/18 09:46:58;;;;;;;3.33;3.03;;;;;;;;;;5031629;28;20026;-62
2024/01/18 09:49:25;;;;;;;4.57;3.60;;;;;;;;;;5012584;28;20120;-62
2024/01/18 09:51:52;;;;;;;3.55;3.20;;;;;;;;;;5017940;28;20135;-62
2024/01/18 09:54:18;;;;;;;4.05;3.10;;;;;;;;;;5016228;28;20034;-62
2024/01/18 09:56:46;;;;;;;3.13;2.85;;;;;;;;;;5019807;28;20026;-62
2024/01/18 09:59:16;;;;;;;3.47;3.05;;;;;;;;;;5014802;28;20037;-62
2024/01/18 10:01:42;;;;;;;8.20;3.78;;;;;;;;;;5021139;28;20060;-63
2024/01/18 10:04:12;;;;;;;4.00;3.70;;;;;;;;;;5022794;28;20097;-62
2024/01/18 10:06:38;;;;;;;4.70;3.80;;;;;;;;;;5012107;28;20458;-62
2024/01/18 10:09:13;;;;;;;3.25;2.92;;;;;;;;;;5018486;28;20485;-62
2024/01/18 10:11:40;;;;;;;3.58;3.28;;;;;;;;;;5015146;28;20034;-62
2024/01/18 10:14:08;;;;;;;3.40;3.13;;;;;;;;;;5031845;28;20045;-62
2024/01/18 10:16:38;;;;;;;4.13;3.65;;;;;;;;;;5014504;28;20033;-62
2024/01/18 10:19:05;;;;;;;3.88;3.45;;;;;;;;;;5012168;28;20026;-62
2024/01/18 10:21:34;;;;;;;11.65;7.28;;;;;;;;;;5017032;28;20104;-62
2024/01/18 10:24:02;;;;;;;29.30;8.35;;;;;;;;;;5029221;28;20082;-62
2024/01/18 10:26:31;;;;;;;23.70;14.35;;;;;;;;;;5026806;28;20037;-65
2024/01/18 10:28:58;;;;;;;15.57;8.90;;;;;;;;;;5018623;28;20398;-62
2024/01/18 10:31:25;;;;;;;11.88;8.25;;;;;;;;;;5015643;28;20033;-62
2024/01/18 10:33:51;;;;;;;5.40;3.60;;;;;;;;;;5014499;28;20030;-62
2024/01/18 10:36:18;;;;;;;12.30;7.32;;;;;;;;;;5028270;28;20030;-62
2024/01/18 10:38:44;;;;;;;5.03;4.53;;;;;;;;;;5014603;28;20032;-64
2024/01/18 10:41:11;;;;;;;4.63;3.90;;;;;;;;;;5019276;28;20021;-63
2024/01/18 10:43:37;;;;;;;6.55;3.78;;;;;;;;;;5018099;28;20033;-61
2024/01/18 10:46:04;;;;;;;2.95;2.67;;;;;;;;;;5026055;28;20030;-62
2024/01/18 10:48:31;;;;;;;5.15;3.60;;;;;;;;;;5011004;28;20095;-63
2024/01/18 10:50:58;;;;;;;3.17;2.88;;;;;;;;;;5021828;28;20038;-62
2024/01/18 10:53:24;;;;;;;3.53;3.22;;;;;;;;;;5029757;28;20136;-62
2024/01/18 10:55:54;;;;;;;4.93;2.67;;;;;;;;;;5021946;28;20036;-62
2024/01/18 10:58:20;;;;;;;5.68;4.93;;;;;;;;;;5018526;28;20108;-61
2024/01/18 11:00:47;;;;;;;4.55;3.28;;;;;;;;;;5024517;28;20040;-62
2024/01/18 11:03:17;;;;;;;5.10;3.65;;;;;;;;;;5022768;28;20116;-61
2024/01/18 11:05:45;;;;;;;12.10;3.35;;;;;;;;;;5019177;28;20543;-62
2024/01/18 11:08:12;;;;;;;7.15;4.22;;;;;;;;;;5017727;28;20101;-62
2024/01/18 11:10:39;;;;;;;2.88;2.67;;;;;;;;;;5015847;28;20037;-62
2024/01/18 11:13:12;;;;;;;6.60;5.97;;;;;;;;;;5039668;28;20778;-62
2024/01/18 11:15:41;;;;;;;8.60;5.63;;;;;;;;;;5014494;28;20049;-63
2024/01/18 11:18:11;;;;;;;5.15;3.78;;;;;;;;;;5012247;28;20026;-63
2024/01/18 11:20:56;;;;;;;9.63;5.13;;;;;;;;;;5015749;28;20025;-64
2024/01/18 11:23:29;;;;;;;4.53;2.70;;;;;;;;;;5035252;28;20053;-64
2024/01/18 11:25:55;;;;;;;5.55;4.55;;;;;;;;;;5015046;28;20029;-64
2024/01/18 11:28:25;;;;;;;4.80;3.90;;;;;;;;;;5013233;28;20095;-63
2024/01/18 11:30:52;;;;;;;5.10;3.88;;;;;;;;;;5021241;28;20042;-64
2024/01/18 11:33:18;;;;;;;7.68;4.47;;;;;;;;;;5015954;28;20108;-63
2024/01/18 11:35:45;;;;;;;6.80;4.13;;;;;;;;;;5013344;28;20026;-64
2024/01/18 11:38:21;;;;;;;4.20;3.30;;;;;;;;;;5012896;28;20387;-63
2024/01/18 11:40:50;;;;;;;5.82;3.35;;;;;;;;;;5016570;28;20041;-63
2024/01/18 11:43:18;;;;;;;3.33;2.90;;;;;;;;;;5019636;28;20175;-64
2024/01/18 11:45:44;;;;;;;6.70;3.38;;;;;;;;;;5016980;28;20033;-63
2024/01/18 11:48:11;;;;;;;5.70;3.55;;;;;;;;;;5015498;28;20408;-64
2024/01/18 11:50:38;;;;;;;4.10;2.90;;;;;;;;;;5013469;28;20041;-64
2024/01/18 11:53:04;;;;;;;4.28;2.92;;;;;;;;;;5026890;28;20034;-64
2024/01/18 11:55:31;;;;;;;5.03;2.65;;;;;;;;;;5012577;28;20034;-64
2024/01/18 11:58:01;;;;;;;4.57;2.45;;;;;;;;;;5019030;28;20049;-64
2024/01/18 12:00:28;;;;;;;5.43;4.78;;;;;;;;;;5032478;28;21025;-64
2024/01/18 12:02:55;;;;;;;5.72;2.53;;;;;;;;;;5020880;28;20034;-64
2024/01/18 12:05:22;;;;;;;4.32;2.70;;;;;;;;;;5035752;28;20050;-63
2024/01/18 12:07:48;;;;;;;5.10;3.40;;;;;;;;;;5020188;28;20559;-64
2024/01/18 12:10:15;;;;;;;5.25;2.88;;;;;;;;;;5021222;28;20153;-63
2024/01/18 12:12:42;;;;;;;5.68;2.95;;;;;;;;;;5021890;28;20025;-64
2024/01/18 12:15:09;;;;;;;5.45;3.20;;;;;;;;;;5017759;28;20108;-64
2024/01/18 12:17:35;;;;;;;3.22;2.92;;;;;;;;;;5022707;28;20473;-64
2024/01/18 12:20:02;;;;;;;4.47;3.08;;;;;;;;;;5035633;28;20029;-65
2024/01/18 12:22:28;;;;;;;5.03;3.30;;;;;;;;;;5018322;28;20057;-65
2024/01/18 12:24:54;;;;;;;5.25;3.58;;;;;;;;;;5016316;28;20098;-65
2024/01/18 12:27:20;;;;;;;5.47;3.30;;;;;;;;;;5019132;28;20021;-64
2024/01/18 12:29:49;;;;;;;3.03;2.70;;;;;;;;;;5018987;28;20401;-67
2024/01/18 12:32:19;;;;;;;4.93;3.10;;;;;;;;;;5017068;28;20186;-64
2024/01/18 12:34:45;;;;;;;4.90;2.70;;;;;;;;;;5022434;28;20029;-65
2024/01/18 12:37:12;;;;;;;3.28;2.60;;;;;;;;;;5040405;28;20022;-65
2024/01/18 12:39:39;;;;;;;3.47;2.83;;;;;;;;;;5018091;28;20124;-65
2024/01/18 12:42:05;;;;;;;4.25;2.55;;;;;;;;;;5020355;28;20025;-65
2024/01/18 12:44:31;;;;;;;5.22;2.47;;;;;;;;;;5016105;28;20017;-66
2024/01/18 12:47:00;;;;;;;3.78;2.38;;;;;;;;;;5018556;28;20078;-66
2024/01/18 12:49:27;;;;;;;5.57;2.50;;;;;;;;;;5017460;28;20033;-65
2024/01/18 12:51:54;;;;;;;5.05;2.80;;;;;;;;;;5041046;28;20064;-65
2024/01/18 12:54:22;;;;;;;3.90;2.58;;;;;;;;;;5007762;28;20025;-65
2024/01/18 12:56:51;;;;;;;4.38;2.70;;;;;;;;;;5014420;28;20025;-65
2024/01/18 12:59:17;;;;;;;5.22;2.58;;;;;;;;;;5011113;28;20028;-67
2024/01/18 13:01:50;;;;;;;3.83;2.75;;;;;;;;;;5011137;28;20034;-65
2024/01/18 13:04:25;;;;;;;4.82;3.85;;;;;;;;;;5013794;28;20029;-67
2024/01/18 13:06:54;;;;;;;3.30;2.70;;;;;;;;;;5011519;28;20049;-66
2024/01/18 13:09:24;;;;;;;4.18;2.15;;;;;;;;;;5019842;28;20025;-65
2024/01/18 13:11:50;;;;;;;4.30;3.90;;;;;;;;;;5035185;28;20033;-69
2024/01/18 13:14:16;;;;;;;3.55;3.25;;;;;;;;;;5020309;28;20071;-67
2024/01/18 13:16:47;;;;;;;5.18;4.68;;;;;;;;;;5018126;28;20354;-65
2024/01/18 13:19:14;;;;;;;24.38;11.02;;;;;;;;;;5011184;28;20034;-66
2024/01/18 13:21:44;;;;;;;28.65;12.02;;;;;;;;;;5016558;28;20427;-66
2024/01/18 13:24:11;;;;;;;15.18;10.45;;;;;;;;;;5013079;28;20049;-66
2024/01/18 13:26:38;;;;;;;11.15;9.18;;;;;;;;;;5014992;28;20084;-66
2024/01/18 13:29:05;;;;;;;15.88;14.30;;;;;;;;;;5024495;28;20048;-66
2024/01/18 13:31:32;;;;;;;11.88;7.50;;;;;;;;;;5011698;28;20300;-66
2024/01/18 13:33:58;;;;;;;30.65;27.48;;;;;;;;;;5010885;28;20032;-66
2024/01/18 13:36:25;;;;;;;8.18;4.53;;;;;;;;;;5015112;28;20021;-66
2024/01/18 13:38:51;;;;;;;51.72;20.98;;;;;;;;;;5014478;28;20037;-66
2024/01/18 13:41:18;;;;;;;7.47;5.25;;;;;;;;;;5019749;28;20524;-67
2024/01/18 13:43:44;;;;;;;20.63;10.52;;;;;;;;;;5011748;28;20402;-66
2024/01/18 13:46:10;;;;;;;11.25;5.90;;;;;;;;;;5030130;28;20147;-66
2024/01/18 13:48:36;;;;;;;12.98;6.53;;;;;;;;;;5009459;28;20134;-65
2024/01/18 13:51:03;;;;;;;22.10;11.32;;;;;;;;;;5018392;28;20050;-66
2024/01/18 13:53:30;;;;;;;30.40;17.35;;;;;;;;;;5010096;28;20121;-66
2024/01/18 13:55:56;;;;;;;5.10;4.13;;;;;;;;;;5027232;28;20045;-65
2024/01/18 13:58:23;;;;;;;9.15;6.80;;;;;;;;;;5017580;28;20041;-66
2024/01/18 14:00:49;;;;;;;6.13;4.63;;;;;;;;;;5016790;28;20384;-66
2024/01/18 14:03:16;;;;;;;4.82;3.67;;;;;;;;;;5016576;28;20033;-65
2024/01/18 14:05:43;;;;;;;3.75;2.30;;;;;;;;;;5012956;28;20092;-65
2024/01/18 14:08:09;;;;;;;4.70;2.47;;;;;;;;;;5019046;28;20485;-65
2024/01/18 14:10:35;;;;;;;4.03;2.30;;;;;;;;;;5030747;28;20036;-65
2024/01/18 14:13:01;;;;;;;6.70;3.88;;;;;;;;;;5013224;28;20466;-65
2024/01/18 14:15:31;;;;;;;3.22;2.08;;;;;;;;;;5016288;28;20025;-64
2024/01/18 14:17:58;;;;;;;5.43;3.30;;;;;;;;;;5018911;28;20111;-64
2024/01/18 14:20:25;;;;;;;3.97;2.80;;;;;;;;;;5018348;28;20034;-65
2024/01/18 14:22:51;;;;;;;11.77;7.07;;;;;;;;;;5022243;28;20393;-64
2024/01/18 14:25:17;;;;;;;4.03;2.05;;;;;;;;;;5014531;28;20029;-64
2024/01/18 14:27:44;;;;;;;5.13;3.10;;;;;;;;;;5013777;28;20470;-64
2024/01/18 14:30:13;;;;;;;2.85;1.80;;;;;;;;;;5023954;28;20033;-68
2024/01/18 14:32:40;;;;;;;3.75;2.85;;;;;;;;;;5012881;28;20083;-64
2024/01/18 14:35:06;;;;;;;2.53;2.03;;;;;;;;;;5020547;28;20057;-65
2024/01/18 14:37:33;;;;;;;1.95;1.80;;;;;;;;;;5017314;28;20026;-66
2024/01/18 14:39:59;;;;;;;3.15;2.60;;;;;;;;;;5031458;28;20488;-64